Torre De Belem — CSIO — position and weather

sailwx.info

Track history (hours):
 
Tides and Currents Weather Stations Pressure Air Temp Water Temp Dewpoint Dewpoint Depression Visibility Wind Speed Wind Dir Waves Ship Positions

Torre De Belem

Last reported at 2015-May-18 05:13 UTC. Time now 2015-Jul-04 19:06 UTC.
Position N 38°42' W 009°14'.
Warning: this ship's position is 47 days out of date.

Length 14 m.

MMSI: 263671850.

Date/timePositionNaut miles runAvg speedWind from/ knotsBaromVisibWave heightAir tempDewpointWater temp
2015-May-18 05:13N 38°42' W 009°14'0 0.0
2015-May-18 04:26N 38°42' W 009°14'0 0.2
2015-May-18 03:32N 38°42' W 009°14'0 0.2
2015-May-18 02:31N 38°42' W 009°14'1 0.8
2015-May-18 01:33N 38°41' W 009°14'1 0.7
2015-May-18 00:31N 38°42' W 009°14'0 0.0
2015-May-17 22:24N 38°42' W 009°14'1 1.2
2015-May-17 21:33N 38°42' W 009°13'1 0.9
2015-May-17 20:33N 38°41' W 009°14'0 0.4
2015-May-17 19:19N 38°42' W 009°14'0 0.0
2015-May-17 18:21N 38°42' W 009°14'0 0.0
2015-May-17 04:21N 38°42' W 009°14'0 0.0
2015-May-17 03:16N 38°42' W 009°14'0 0.0
2015-May-17 02:33N 38°42' W 009°14'1 0.7
2015-May-17 01:33N 38°41' W 009°15'1 0.2
2015-May-16 22:26N 38°42' W 009°14'0 0.0
2015-May-16 21:33N 38°42' W 009°14'1 1.0
2015-May-16 20:33N 38°41' W 009°13'1 0.7
2015-May-16 19:04N 38°42' W 009°14'0 0.0
2015-May-16 01:33N 38°42' W 009°14'0 0.0
2015-May-16 00:32N 38°42' W 009°14'0 0.0
2015-May-15 23:32N 38°42' W 009°14'0 0.0
2015-May-15 22:34N 38°42' W 009°14'0 0.0
2015-May-15 21:27N 38°42' W 009°14'0 0.0
2015-May-15 19:31N 38°42' W 009°14'0 0.0
2015-May-15 18:32N 38°42' W 009°14'0 0.0
2015-May-14 21:27N 38°42' W 009°14'0 0.0
2015-May-14 20:11N 38°42' W 009°14'1 2.0
2015-May-14 19:34N 38°41' W 009°13'1 0.9
2015-May-14 18:09N 38°42' W 009°14'0 0.0
2015-May-14 17:32N 38°42' W 009°14'0 0.0
2015-May-14 16:28N 38°42' W 009°14'0 0.0
2015-May-14 15:33N 38°42' W 009°14'0 0.0
2015-May-14 14:31N 38°42' W 009°14'0 0.0
2015-May-14 13:31N 38°42' W 009°14'0 0.0
2015-May-14 12:32N 38°42' W 009°14'0 0.0
2015-May-14 11:33N 38°42' W 009°14'0 0.0
2015-May-14 10:33N 38°42' W 009°14'0 0.0
2015-May-14 09:26N 38°42' W 009°14'0 0.0
2015-May-14 08:22N 38°42' W 009°14'0 0.0
2015-May-14 07:29N 38°42' W 009°14'0 0.0
2015-May-14 06:20N 38°42' W 009°14'5 1.1
2015-May-14 01:33N 38°39' W 009°20'5 0.7
2015-May-13 18:30N 38°42' W 009°14'0 0.0
2015-May-13 17:31N 38°42' W 009°14'2 0.2
2015-May-13 07:33N 38°41' W 009°12'2 0.3
2015-May-13 01:05N 38°42' W 009°14'4 6.8
2015-May-13 00:33N 38°42' W 009°09'2 1.9
2015-May-12 23:33N 38°42' W 009°07'5 4.7
2015-May-12 22:33N 38°41' W 009°13'1 1.0
2015-May-12 21:30N 38°42' W 009°14'0 0.0
2015-May-12 20:30N 38°42' W 009°14'0 0.0
2015-May-12 19:34N 38°42' W 009°14'0 0.0
2015-May-12 18:33N 38°42' W 009°14'0 0.0
2015-May-12 17:33N 38°42' W 009°14'0 0.2
2015-May-12 16:33N 38°42' W 009°14'0 0.2
2015-May-12 15:33N 38°42' W 009°14'1 1.3
2015-May-12 14:33N 38°41' W 009°13'1 0.0
2015-May-11 05:33N 38°42' W 009°14'0 0.0
2015-May-11 04:33N 38°42' W 009°14'0 0.0
2015-May-11 03:33N 38°42' W 009°14'0 0.0
2015-May-11 02:33N 38°42' W 009°14'0 0.0
2015-May-11 01:34N 38°42' W 009°14'0 0.0
2015-May-11 00:23N 38°42' W 009°14'0 0.0
2015-May-10 23:26N 38°42' W 009°14'0 0.0
2015-May-10 22:31N 38°42' W 009°14'0 0.0
2015-May-10 21:33N 38°42' W 009°14'0 0.0
2015-May-10 20:24N 38°42' W 009°14'0 0.0
2015-May-10 19:29N 38°42' W 009°14'0 0.0
2015-May-10 10:14N 38°42' W 009°14'3 4.1
2015-May-10 09:33N 38°41' W 009°11'3 0.8
2015-May-10 06:18N 38°42' W 009°14'0 0.0
2015-May-10 05:30N 38°42' W 009°14'0 0.0
2015-May-10 04:34N 38°42' W 009°14'0 0.0
2015-May-10 03:34N 38°42' W 009°14'0 0.0
2015-May-10 02:33N 38°42' W 009°14'0 0.0
2015-May-10 01:31N 38°42' W 009°14'0 0.0
2015-May-10 00:30N 38°42' W 009°14'0 0.0
2015-May-09 23:33N 38°42' W 009°14'0 0.0
2015-May-09 22:26N 38°42' W 009°14'0 0.0
2015-May-09 21:27N 38°42' W 009°14'0 0.0
2015-May-09 20:30N 38°42' W 009°14'2 2.6
2015-May-09 19:34N 38°41' W 009°11'1 0.3
2015-May-09 16:33N 38°41' W 009°12'2 1.5
2015-May-09 15:32N 38°42' W 009°14'0 0.0
2015-May-09 14:34N 38°42' W 009°14'0 0.0
2015-May-09 13:31N 38°42' W 009°14'0 0.0
2015-May-09 12:28N 38°42' W 009°14'0 0.0
2015-May-09 11:30N 38°42' W 009°14'0 0.0
2015-May-09 10:31N 38°42' W 009°14'0 0.0
2015-May-09 09:31N 38°42' W 009°14'0 0.0
2015-May-09 08:34N 38°42' W 009°14'0 0.0
2015-May-09 07:27N 38°42' W 009°14'0 0.0
2015-May-09 06:31N 38°42' W 009°14'0 0.0
2015-May-09 05:32N 38°42' W 009°14'0 0.0
2015-May-09 04:33N 38°42' W 009°14'0 0.0
2015-May-09 03:33N 38°42' W 009°14'2 2.5
2015-May-09 02:33N 38°41' W 009°11'2 2.3
2015-May-09 01:28N 38°42' W 009°14'0 0.0
2015-May-09 00:14N 38°42' W 009°14'0 0.0
2015-May-08 23:30N 38°42' W 009°14'0 0.2
2015-May-08 22:33N 38°42' W 009°14'0 0.0
2015-May-08 17:17N 38°42' W 009°14'0 0.0
2015-May-08 16:33N 38°42' W 009°14'1 1.0
2015-May-08 15:33N 38°41' W 009°13'1 0.9
2015-May-08 14:31N 38°42' W 009°14'0 0.0
2015-May-08 13:05N 38°42' W 009°14'0 0.0
2015-May-08 12:32N 38°42' W 009°14'0 0.0
2015-May-08 11:28N 38°42' W 009°14'0 0.0
2015-May-08 10:26N 38°42' W 009°14'0 0.0
2015-May-08 09:34N 38°42' W 009°14'2 2.1
2015-May-08 08:33N 38°41' W 009°12'0 0.0
2015-May-08 07:33N 38°41' W 009°12'2 1.9
2015-May-08 06:25N 38°42' W 009°14'0 0.0
2015-May-08 05:29N 38°42' W 009°14'  
Track history (hours):
 
Tides and Currents Weather Stations Pressure Air Temp Water Temp Dewpoint Dewpoint Depression Visibility Wind Speed Wind Dir Waves Ship Positions

Torre De Belem

Last reported at 2015-May-18 05:13 UTC. Time now 2015-Jul-04 19:06 UTC.
Position N 38°42' W 009°14'.
Warning: this ship's position is 47 days out of date.

Length 14 m.

MMSI: 263671850.

Date/timePositionNaut miles runAvg speedWind from/ knotsBaromVisibWave heightAir tempDewpointWater temp
2015-May-18 05:13N 38°42' W 009°14'0 0.0
2015-May-18 04:26N 38°42' W 009°14'0 0.2
2015-May-18 03:32N 38°42' W 009°14'0 0.2
2015-May-18 02:31N 38°42' W 009°14'1 0.8
2015-May-18 01:33N 38°41' W 009°14'1 0.7
2015-May-18 00:31N 38°42' W 009°14'0 0.0
2015-May-17 22:24N 38°42' W 009°14'1 1.2
2015-May-17 21:33N 38°42' W 009°13'1 0.9
2015-May-17 20:33N 38°41' W 009°14'0 0.4
2015-May-17 19:19N 38°42' W 009°14'0 0.0
2015-May-17 18:21N 38°42' W 009°14'0 0.0
2015-May-17 04:21N 38°42' W 009°14'0 0.0
2015-May-17 03:16N 38°42' W 009°14'0 0.0
2015-May-17 02:33N 38°42' W 009°14'1 0.7
2015-May-17 01:33N 38°41' W 009°15'1 0.2
2015-May-16 22:26N 38°42' W 009°14'0 0.0
2015-May-16 21:33N 38°42' W 009°14'1 1.0
2015-May-16 20:33N 38°41' W 009°13'1 0.7
2015-May-16 19:04N 38°42' W 009°14'0 0.0
2015-May-16 01:33N 38°42' W 009°14'0 0.0
2015-May-16 00:32N 38°42' W 009°14'0 0.0
2015-May-15 23:32N 38°42' W 009°14'0 0.0
2015-May-15 22:34N 38°42' W 009°14'0 0.0
2015-May-15 21:27N 38°42' W 009°14'0 0.0
2015-May-15 19:31N 38°42' W 009°14'0 0.0
2015-May-15 18:32N 38°42' W 009°14'0 0.0
2015-May-14 21:27N 38°42' W 009°14'0 0.0
2015-May-14 20:11N 38°42' W 009°14'1 2.0
2015-May-14 19:34N 38°41' W 009°13'1 0.9
2015-May-14 18:09N 38°42' W 009°14'0 0.0
2015-May-14 17:32N 38°42' W 009°14'0 0.0
2015-May-14 16:28N 38°42' W 009°14'0 0.0
2015-May-14 15:33N 38°42' W 009°14'0 0.0
2015-May-14 14:31N 38°42' W 009°14'0 0.0
2015-May-14 13:31N 38°42' W 009°14'0 0.0
2015-May-14 12:32N 38°42' W 009°14'0 0.0
2015-May-14 11:33N 38°42' W 009°14'0 0.0
2015-May-14 10:33N 38°42' W 009°14'0 0.0
2015-May-14 09:26N 38°42' W 009°14'0 0.0
2015-May-14 08:22N 38°42' W 009°14'0 0.0
2015-May-14 07:29N 38°42' W 009°14'0 0.0
2015-May-14 06:20N 38°42' W 009°14'5 1.1
2015-May-14 01:33N 38°39' W 009°20'5 0.7
2015-May-13 18:30N 38°42' W 009°14'0 0.0
2015-May-13 17:31N 38°42' W 009°14'2 0.2
2015-May-13 07:33N 38°41' W 009°12'2 0.3
2015-May-13 01:05N 38°42' W 009°14'4 6.8
2015-May-13 00:33N 38°42' W 009°09'2 1.9
2015-May-12 23:33N 38°42' W 009°07'5 4.7
2015-May-12 22:33N 38°41' W 009°13'1 1.0
2015-May-12 21:30N 38°42' W 009°14'0 0.0
2015-May-12 20:30N 38°42' W 009°14'0 0.0
2015-May-12 19:34N 38°42' W 009°14'0 0.0
2015-May-12 18:33N 38°42' W 009°14'0 0.0
2015-May-12 17:33N 38°42' W 009°14'0 0.2
2015-May-12 16:33N 38°42' W 009°14'0 0.2
2015-May-12 15:33N 38°42' W 009°14'1 1.3
2015-May-12 14:33N 38°41' W 009°13'1 0.0
2015-May-11 05:33N 38°42' W 009°14'0 0.0
2015-May-11 04:33N 38°42' W 009°14'0 0.0
2015-May-11 03:33N 38°42' W 009°14'0 0.0
2015-May-11 02:33N 38°42' W 009°14'0 0.0
2015-May-11 01:34N 38°42' W 009°14'0 0.0
2015-May-11 00:23N 38°42' W 009°14'0 0.0
2015-May-10 23:26N 38°42' W 009°14'0 0.0
2015-May-10 22:31N 38°42' W 009°14'0 0.0
2015-May-10 21:33N 38°42' W 009°14'0 0.0
2015-May-10 20:24N 38°42' W 009°14'0 0.0
2015-May-10 19:29N 38°42' W 009°14'0 0.0
2015-May-10 10:14N 38°42' W 009°14'3 4.1
2015-May-10 09:33N 38°41' W 009°11'3 0.8
2015-May-10 06:18N 38°42' W 009°14'0 0.0
2015-May-10 05:30N 38°42' W 009°14'0 0.0
2015-May-10 04:34N 38°42' W 009°14'0 0.0
2015-May-10 03:34N 38°42' W 009°14'0 0.0
2015-May-10 02:33N 38°42' W 009°14'0 0.0
2015-May-10 01:31N 38°42' W 009°14'0 0.0
2015-May-10 00:30N 38°42' W 009°14'0 0.0
2015-May-09 23:33N 38°42' W 009°14'0 0.0
2015-May-09 22:26N 38°42' W 009°14'0 0.0
2015-May-09 21:27N 38°42' W 009°14'0 0.0
2015-May-09 20:30N 38°42' W 009°14'2 2.6
2015-May-09 19:34N 38°41' W 009°11'1 0.3
2015-May-09 16:33N 38°41' W 009°12'2 1.5
2015-May-09 15:32N 38°42' W 009°14'0 0.0
2015-May-09 14:34N 38°42' W 009°14'0 0.0
2015-May-09 13:31N 38°42' W 009°14'0 0.0
2015-May-09 12:28N 38°42' W 009°14'0 0.0
2015-May-09 11:30N 38°42' W 009°14'0 0.0
2015-May-09 10:31N 38°42' W 009°14'0 0.0
2015-May-09 09:31N 38°42' W 009°14'0 0.0
2015-May-09 08:34N 38°42' W 009°14'0 0.0
2015-May-09 07:27N 38°42' W 009°14'0 0.0
2015-May-09 06:31N 38°42' W 009°14'0 0.0
2015-May-09 05:32N 38°42' W 009°14'0 0.0
2015-May-09 04:33N 38°42' W 009°14'0 0.0
2015-May-09 03:33N 38°42' W 009°14'2 2.5
2015-May-09 02:33N 38°41' W 009°11'2 2.3
2015-May-09 01:28N 38°42' W 009°14'0 0.0
2015-May-09 00:14N 38°42' W 009°14'0 0.0
2015-May-08 23:30N 38°42' W 009°14'0 0.2
2015-May-08 22:33N 38°42' W 009°14'0 0.0
2015-May-08 17:17N 38°42' W 009°14'0 0.0
2015-May-08 16:33N 38°42' W 009°14'1 1.0
2015-May-08 15:33N 38°41' W 009°13'1 0.9
2015-May-08 14:31N 38°42' W 009°14'0 0.0
2015-May-08 13:05N 38°42' W 009°14'0 0.0
2015-May-08 12:32N 38°42' W 009°14'0 0.0
2015-May-08 11:28N 38°42' W 009°14'0 0.0
2015-May-08 10:26N 38°42' W 009°14'0 0.0
2015-May-08 09:34N 38°42' W 009°14'2 2.1
2015-May-08 08:33N 38°41' W 009°12'0 0.0
2015-May-08 07:33N 38°41' W 009°12'2 1.9
2015-May-08 06:25N 38°42' W 009°14'0 0.0
2015-May-08 05:29N 38°42' W 009°14'  

Dump ship's entire track history